sensor_id;sensor_type;location;lat;lon;timestamp;P1;durP1;ratioP1;P2;durP2;ratioP2
67363;SDS011;54250;45.572;38.086;2023-09-12T00:02:16;20.35;;;12.57;;
67363;SDS011;54250;45.572;38.086;2023-09-12T00:04:42;25.58;;;12.20;;
67363;SDS011;54250;45.572;38.086;2023-09-12T00:07:07;29.85;;;11.73;;
67363;SDS011;54250;45.572;38.086;2023-09-12T00:09:33;26.48;;;12.43;;
67363;SDS011;54250;45.572;38.086;2023-09-12T00:11:59;30.08;;;12.52;;
67363;SDS011;54250;45.572;38.086;2023-09-12T00:14:25;26.00;;;12.75;;
67363;SDS011;54250;45.572;38.086;2023-09-12T00:16:51;21.42;;;12.02;;
67363;SDS011;54250;45.572;38.086;2023-09-12T00:19:20;25.75;;;13.02;;
67363;SDS011;54250;45.572;38.086;2023-09-12T00:21:46;29.02;;;13.63;;
67363;SDS011;54250;45.572;38.086;2023-09-12T00:24:14;28.65;;;14.18;;
67363;SDS011;54250;45.572;38.086;2023-09-12T00:26:40;29.00;;;12.85;;
67363;SDS011;54250;45.572;38.086;2023-09-12T00:29:05;29.73;;;13.93;;
67363;SDS011;54250;45.572;38.086;2023-09-12T00:31:31;29.13;;;13.10;;
67363;SDS011;54250;45.572;38.086;2023-09-12T00:33:57;37.80;;;15.10;;
67363;SDS011;54250;45.572;38.086;2023-09-12T00:36:23;31.75;;;14.32;;
67363;SDS011;54250;45.572;38.086;2023-09-12T00:38:49;27.80;;;13.23;;
67363;SDS011;54250;45.572;38.086;2023-09-12T00:41:15;35.97;;;13.35;;
67363;SDS011;54250;45.572;38.086;2023-09-12T00:43:41;27.23;;;12.38;;
67363;SDS011;54250;45.572;38.086;2023-09-12T00:46:07;26.75;;;12.50;;
67363;SDS011;54250;45.572;38.086;2023-09-12T00:48:33;21.88;;;12.35;;
67363;SDS011;54250;45.572;38.086;2023-09-12T00:50:59;32.05;;;12.05;;
67363;SDS011;54250;45.572;38.086;2023-09-12T00:53:26;33.42;;;12.38;;
67363;SDS011;54250;45.572;38.086;2023-09-12T00:55:54;21.50;;;11.43;;
67363;SDS011;54250;45.572;38.086;2023-09-12T00:58:23;21.83;;;12.25;;
67363;SDS011;54250;45.572;38.086;2023-09-12T01:00:50;25.10;;;12.20;;
67363;SDS011;54250;45.572;38.086;2023-09-12T01:03:16;29.23;;;12.40;;
67363;SDS011;54250;45.572;38.086;2023-09-12T01:05:42;22.90;;;11.20;;
67363;SDS011;54250;45.572;38.086;2023-09-12T01:08:10;28.75;;;13.70;;
67363;SDS011;54250;45.572;38.086;2023-09-12T01:10:36;22.73;;;10.35;;
67363;SDS011;54250;45.572;38.086;2023-09-12T01:13:02;21.25;;;11.38;;
67363;SDS011;54250;45.572;38.086;2023-09-12T01:15:28;19.23;;;10.32;;
67363;SDS011;54250;45.572;38.086;2023-09-12T01:17:55;22.60;;;10.10;;
67363;SDS011;54250;45.572;38.086;2023-09-12T01:20:31;16.25;;;8.77;;
67363;SDS011;54250;45.572;38.086;2023-09-12T01:25:58;20.38;;;9.73;;
67363;SDS011;54250;45.572;38.086;2023-09-12T01:28:33;21.17;;;10.57;;
67363;SDS011;54250;45.572;38.086;2023-09-12T01:31:01;19.88;;;11.48;;
67363;SDS011;54250;45.572;38.086;2023-09-12T01:33:28;33.53;;;10.63;;
67363;SDS011;54250;45.572;38.086;2023-09-12T01:35:55;26.08;;;11.10;;
67363;SDS011;54250;45.572;38.086;2023-09-12T01:38:21;22.58;;;10.93;;
67363;SDS011;54250;45.572;38.086;2023-09-12T01:40:51;23.58;;;11.50;;
67363;SDS011;54250;45.572;38.086;2023-09-12T01:43:19;26.55;;;11.50;;
67363;SDS011;54250;45.572;38.086;2023-09-12T01:45:48;24.00;;;13.13;;
67363;SDS011;54250;45.572;38.086;2023-09-12T01:48:19;22.38;;;12.88;;
67363;SDS011;54250;45.572;38.086;2023-09-12T01:50:46;30.75;;;13.95;;
67363;SDS011;54250;45.572;38.086;2023-09-12T01:53:13;24.08;;;13.60;;
67363;SDS011;54250;45.572;38.086;2023-09-12T01:55:43;25.77;;;13.43;;
67363;SDS011;54250;45.572;38.086;2023-09-12T01:58:11;29.13;;;13.48;;
67363;SDS011;54250;45.572;38.086;2023-09-12T02:00:38;24.85;;;12.70;;
67363;SDS011;54250;45.572;38.086;2023-09-12T02:03:05;27.27;;;12.30;;
67363;SDS011;54250;45.572;38.086;2023-09-12T02:05:31;25.70;;;12.27;;
67363;SDS011;54250;45.572;38.086;2023-09-12T02:07:57;24.92;;;11.70;;
67363;SDS011;54250;45.572;38.086;2023-09-12T02:10:25;25.33;;;12.98;;
67363;SDS011;54250;45.572;38.086;2023-09-12T02:12:52;25.10;;;12.20;;
67363;SDS011;54250;45.572;38.086;2023-09-12T02:15:18;19.27;;;10.27;;
67363;SDS011;54250;45.572;38.086;2023-09-12T02:17:44;18.13;;;9.25;;
67363;SDS011;54250;45.572;38.086;2023-09-12T02:20:10;20.00;;;9.45;;
67363;SDS011;54250;45.572;38.086;2023-09-12T02:22:36;14.98;;;7.70;;
67363;SDS011;54250;45.572;38.086;2023-09-12T02:25:06;10.80;;;6.75;;
67363;SDS011;54250;45.572;38.086;2023-09-12T02:27:33;29.02;;;5.82;;
67363;SDS011;54250;45.572;38.086;2023-09-12T02:29:59;12.15;;;6.28;;
67363;SDS011;54250;45.572;38.086;2023-09-12T02:32:25;12.65;;;5.75;;
67363;SDS011;54250;45.572;38.086;2023-09-12T02:34:51;11.55;;;5.50;;
67363;SDS011;54250;45.572;38.086;2023-09-12T02:37:19;12.10;;;6.35;;
67363;SDS011;54250;45.572;38.086;2023-09-12T02:39:45;11.18;;;6.20;;
67363;SDS011;54250;45.572;38.086;2023-09-12T02:42:11;15.00;;;6.03;;
67363;SDS011;54250;45.572;38.086;2023-09-12T02:44:36;14.20;;;7.35;;
67363;SDS011;54250;45.572;38.086;2023-09-12T02:47:03;10.95;;;6.28;;
67363;SDS011;54250;45.572;38.086;2023-09-12T02:49:29;13.45;;;6.72;;
67363;SDS011;54250;45.572;38.086;2023-09-12T02:51:55;12.32;;;6.25;;
67363;SDS011;54250;45.572;38.086;2023-09-12T02:54:21;16.70;;;7.10;;
67363;SDS011;54250;45.572;38.086;2023-09-12T02:56:47;15.77;;;8.18;;
67363;SDS011;54250;45.572;38.086;2023-09-12T02:59:13;17.45;;;8.45;;
67363;SDS011;54250;45.572;38.086;2023-09-12T03:01:39;8.13;;;6.18;;
67363;SDS011;54250;45.572;38.086;2023-09-12T03:04:08;15.15;;;7.10;;
67363;SDS011;54250;45.572;38.086;2023-09-12T03:06:34;14.10;;;7.07;;
67363;SDS011;54250;45.572;38.086;2023-09-12T03:09:01;14.35;;;6.55;;
67363;SDS011;54250;45.572;38.086;2023-09-12T03:11:28;14.52;;;6.47;;
67363;SDS011;54250;45.572;38.086;2023-09-12T03:13:55;12.65;;;7.00;;
67363;SDS011;54250;45.572;38.086;2023-09-12T03:16:21;16.90;;;7.20;;
67363;SDS011;54250;45.572;38.086;2023-09-12T03:18:49;13.88;;;7.13;;
67363;SDS011;54250;45.572;38.086;2023-09-12T03:21:15;20.27;;;6.97;;
67363;SDS011;54250;45.572;38.086;2023-09-12T03:23:41;14.35;;;7.47;;
67363;SDS011;54250;45.572;38.086;2023-09-12T03:26:07;10.50;;;5.85;;
67363;SDS011;54250;45.572;38.086;2023-09-12T03:28:35;15.55;;;7.28;;
67363;SDS011;54250;45.572;38.086;2023-09-12T03:31:10;13.15;;;7.35;;
67363;SDS011;54250;45.572;38.086;2023-09-12T03:33:39;25.23;;;7.70;;
67363;SDS011;54250;45.572;38.086;2023-09-12T03:36:07;20.63;;;7.90;;
67363;SDS011;54250;45.572;38.086;2023-09-12T03:38:34;17.00;;;6.63;;
67363;SDS011;54250;45.572;38.086;2023-09-12T03:41:00;11.05;;;6.05;;
67363;SDS011;54250;45.572;38.086;2023-09-12T03:43:27;32.25;;;7.80;;
67363;SDS011;54250;45.572;38.086;2023-09-12T03:45:54;7.85;;;4.78;;
67363;SDS011;54250;45.572;38.086;2023-09-12T03:48:20;14.65;;;6.00;;
67363;SDS011;54250;45.572;38.086;2023-09-12T03:50:46;8.90;;;5.05;;
67363;SDS011;54250;45.572;38.086;2023-09-12T03:53:15;8.77;;;4.85;;
67363;SDS011;54250;45.572;38.086;2023-09-12T03:55:41;12.60;;;6.35;;
67363;SDS011;54250;45.572;38.086;2023-09-12T03:58:08;10.23;;;5.75;;
67363;SDS011;54250;45.572;38.086;2023-09-12T04:00:34;12.02;;;5.60;;
67363;SDS011;54250;45.572;38.086;2023-09-12T04:03:00;21.85;;;6.53;;
67363;SDS011;54250;45.572;38.086;2023-09-12T04:05:26;15.95;;;8.10;;
67363;SDS011;54250;45.572;38.086;2023-09-12T04:07:52;16.13;;;8.90;;
67363;SDS011;54250;45.572;38.086;2023-09-12T04:10:19;22.85;;;9.02;;
67363;SDS011;54250;45.572;38.086;2023-09-12T04:12:45;14.45;;;7.78;;
67363;SDS011;54250;45.572;38.086;2023-09-12T04:15:12;12.02;;;6.40;;
67363;SDS011;54250;45.572;38.086;2023-09-12T04:17:38;15.98;;;4.85;;
67363;SDS011;54250;45.572;38.086;2023-09-12T04:20:04;9.60;;;4.78;;
67363;SDS011;54250;45.572;38.086;2023-09-12T04:22:31;7.75;;;4.55;;
67363;SDS011;54250;45.572;38.086;2023-09-12T04:24:56;9.35;;;4.22;;
67363;SDS011;54250;45.572;38.086;2023-09-12T04:27:22;14.05;;;6.25;;
67363;SDS011;54250;45.572;38.086;2023-09-12T04:29:48;7.03;;;4.53;;
67363;SDS011;54250;45.572;38.086;2023-09-12T04:32:15;7.10;;;4.45;;
67363;SDS011;54250;45.572;38.086;2023-09-12T04:34:44;6.63;;;4.40;;
67363;SDS011;54250;45.572;38.086;2023-09-12T04:37:10;10.32;;;5.53;;
67363;SDS011;54250;45.572;38.086;2023-09-12T04:39:36;8.85;;;4.18;;
67363;SDS011;54250;45.572;38.086;2023-09-12T04:42:03;7.97;;;4.70;;
67363;SDS011;54250;45.572;38.086;2023-09-12T04:44:34;11.43;;;4.35;;
67363;SDS011;54250;45.572;38.086;2023-09-12T04:47:02;8.05;;;4.88;;
67363;SDS011;54250;45.572;38.086;2023-09-12T04:49:28;7.28;;;4.32;;
67363;SDS011;54250;45.572;38.086;2023-09-12T04:51:54;8.60;;;4.60;;
67363;SDS011;54250;45.572;38.086;2023-09-12T04:54:20;7.82;;;4.90;;
67363;SDS011;54250;45.572;38.086;2023-09-12T04:56:46;8.68;;;4.38;;
67363;SDS011;54250;45.572;38.086;2023-09-12T04:59:12;9.80;;;4.20;;
67363;SDS011;54250;45.572;38.086;2023-09-12T05:01:38;6.95;;;4.45;;
67363;SDS011;54250;45.572;38.086;2023-09-12T05:04:04;5.40;;;4.32;;
67363;SDS011;54250;45.572;38.086;2023-09-12T05:06:30;6.85;;;4.32;;
67363;SDS011;54250;45.572;38.086;2023-09-12T05:08:57;5.13;;;4.05;;
67363;SDS011;54250;45.572;38.086;2023-09-12T05:11:23;8.15;;;4.53;;
67363;SDS011;54250;45.572;38.086;2023-09-12T05:13:52;9.75;;;4.22;;
67363;SDS011;54250;45.572;38.086;2023-09-12T05:16:18;6.57;;;4.07;;
67363;SDS011;54250;45.572;38.086;2023-09-12T05:18:44;9.50;;;3.70;;
67363;SDS011;54250;45.572;38.086;2023-09-12T05:21:10;7.38;;;3.47;;
67363;SDS011;54250;45.572;38.086;2023-09-12T05:23:36;4.80;;;3.15;;
67363;SDS011;54250;45.572;38.086;2023-09-12T05:26:02;5.38;;;3.55;;
67363;SDS011;54250;45.572;38.086;2023-09-12T05:28:28;4.75;;;3.40;;
67363;SDS011;54250;45.572;38.086;2023-09-12T05:30:54;5.40;;;3.60;;
67363;SDS011;54250;45.572;38.086;2023-09-12T05:33:20;6.07;;;3.55;;
67363;SDS011;54250;45.572;38.086;2023-09-12T05:35:47;7.75;;;3.72;;
67363;SDS011;54250;45.572;38.086;2023-09-12T05:38:13;5.25;;;2.88;;
67363;SDS011;54250;45.572;38.086;2023-09-12T05:40:39;6.55;;;3.17;;
67363;SDS011;54250;45.572;38.086;2023-09-12T05:43:05;7.47;;;3.92;;
67363;SDS011;54250;45.572;38.086;2023-09-12T05:45:31;6.82;;;3.40;;
67363;SDS011;54250;45.572;38.086;2023-09-12T05:47:58;6.53;;;3.88;;
67363;SDS011;54250;45.572;38.086;2023-09-12T05:50:26;7.32;;;3.40;;
67363;SDS011;54250;45.572;38.086;2023-09-12T05:52:52;6.07;;;3.53;;
67363;SDS011;54250;45.572;38.086;2023-09-12T05:55:18;9.52;;;3.75;;
67363;SDS011;54250;45.572;38.086;2023-09-12T05:57:44;7.43;;;3.63;;
67363;SDS011;54250;45.572;38.086;2023-09-12T06:00:11;5.85;;;3.20;;
67363;SDS011;54250;45.572;38.086;2023-09-12T06:02:41;6.13;;;3.33;;
67363;SDS011;54250;45.572;38.086;2023-09-12T06:05:07;6.22;;;3.13;;
67363;SDS011;54250;45.572;38.086;2023-09-12T06:07:34;5.65;;;3.40;;
67363;SDS011;54250;45.572;38.086;2023-09-12T06:10:00;5.43;;;3.20;;
67363;SDS011;54250;45.572;38.086;2023-09-12T06:12:26;5.47;;;3.30;;
67363;SDS011;54250;45.572;38.086;2023-09-12T06:14:52;3.60;;;2.72;;
67363;SDS011;54250;45.572;38.086;2023-09-12T06:17:20;5.10;;;3.13;;
67363;SDS011;54250;45.572;38.086;2023-09-12T06:19:47;4.20;;;2.92;;
67363;SDS011;54250;45.572;38.086;2023-09-12T06:22:14;8.27;;;2.75;;
67363;SDS011;54250;45.572;38.086;2023-09-12T06:24:42;3.03;;;2.13;;
67363;SDS011;54250;45.572;38.086;2023-09-12T06:27:09;4.50;;;2.38;;
67363;SDS011;54250;45.572;38.086;2023-09-12T06:29:37;4.05;;;2.60;;
67363;SDS011;54250;45.572;38.086;2023-09-12T06:32:03;4.38;;;2.50;;
67363;SDS011;54250;45.572;38.086;2023-09-12T06:34:29;5.35;;;2.80;;
67363;SDS011;54250;45.572;38.086;2023-09-12T06:36:55;5.28;;;2.75;;
67363;SDS011;54250;45.572;38.086;2023-09-12T06:39:21;3.60;;;2.55;;
67363;SDS011;54250;45.572;38.086;2023-09-12T06:41:49;3.78;;;2.80;;
67363;SDS011;54250;45.572;38.086;2023-09-12T06:44:15;5.18;;;2.67;;
67363;SDS011;54250;45.572;38.086;2023-09-12T06:46:41;4.38;;;2.60;;
67363;SDS011;54250;45.572;38.086;2023-09-12T06:49:07;6.75;;;3.35;;
67363;SDS011;54250;45.572;38.086;2023-09-12T06:51:33;5.00;;;2.88;;
67363;SDS011;54250;45.572;38.086;2023-09-12T06:54:00;5.15;;;2.90;;
67363;SDS011;54250;45.572;38.086;2023-09-12T06:56:26;9.07;;;3.50;;
67363;SDS011;54250;45.572;38.086;2023-09-12T06:58:52;3.70;;;2.55;;
67363;SDS011;54250;45.572;38.086;2023-09-12T07:01:20;4.80;;;2.90;;
67363;SDS011;54250;45.572;38.086;2023-09-12T07:03:46;8.95;;;3.20;;
67363;SDS011;54250;45.572;38.086;2023-09-12T07:06:12;4.70;;;2.63;;
67363;SDS011;54250;45.572;38.086;2023-09-12T07:08:39;5.30;;;3.03;;
67363;SDS011;54250;45.572;38.086;2023-09-12T07:11:05;6.20;;;3.67;;
67363;SDS011;54250;45.572;38.086;2023-09-12T07:13:32;9.98;;;4.68;;
67363;SDS011;54250;45.572;38.086;2023-09-12T07:15:58;9.38;;;4.30;;
67363;SDS011;54250;45.572;38.086;2023-09-12T07:18:25;7.10;;;3.90;;
67363;SDS011;54250;45.572;38.086;2023-09-12T07:20:57;6.68;;;3.45;;
67363;SDS011;54250;45.572;38.086;2023-09-12T07:23:27;5.88;;;3.25;;
67363;SDS011;54250;45.572;38.086;2023-09-12T07:25:53;6.43;;;2.63;;
67363;SDS011;54250;45.572;38.086;2023-09-12T07:28:21;9.43;;;3.25;;
67363;SDS011;54250;45.572;38.086;2023-09-12T07:30:46;7.20;;;2.55;;
67363;SDS011;54250;45.572;38.086;2023-09-12T07:33:13;5.63;;;2.38;;
67363;SDS011;54250;45.572;38.086;2023-09-12T07:35:39;4.05;;;2.28;;
67363;SDS011;54250;45.572;38.086;2023-09-12T07:38:04;2.80;;;2.10;;
67363;SDS011;54250;45.572;38.086;2023-09-12T07:40:30;5.47;;;2.03;;
67363;SDS011;54250;45.572;38.086;2023-09-12T07:42:56;5.93;;;2.35;;
67363;SDS011;54250;45.572;38.086;2023-09-12T07:45:22;5.20;;;1.90;;
67363;SDS011;54250;45.572;38.086;2023-09-12T07:47:48;1.88;;;1.48;;
67363;SDS011;54250;45.572;38.086;2023-09-12T07:50:14;3.58;;;1.80;;
67363;SDS011;54250;45.572;38.086;2023-09-12T07:52:40;2.83;;;1.95;;
67363;SDS011;54250;45.572;38.086;2023-09-12T07:55:07;3.05;;;1.70;;
67363;SDS011;54250;45.572;38.086;2023-09-12T07:57:33;3.03;;;1.90;;
67363;SDS011;54250;45.572;38.086;2023-09-12T08:00:03;2.80;;;1.83;;
67363;SDS011;54250;45.572;38.086;2023-09-12T08:02:38;1.40;;;1.30;;
67363;SDS011;54250;45.572;38.086;2023-09-12T08:05:04;1.38;;;1.27;;
67363;SDS011;54250;45.572;38.086;2023-09-12T08:07:31;1.88;;;1.70;;
67363;SDS011;54250;45.572;38.086;2023-09-12T08:09:57;3.00;;;1.45;;
67363;SDS011;54250;45.572;38.086;2023-09-12T08:12:25;2.58;;;1.55;;
67363;SDS011;54250;45.572;38.086;2023-09-12T08:14:52;2.63;;;1.67;;
67363;SDS011;54250;45.572;38.086;2023-09-12T08:17:21;2.20;;;1.60;;
67363;SDS011;54250;45.572;38.086;2023-09-12T08:19:48;2.58;;;1.65;;
67363;SDS011;54250;45.572;38.086;2023-09-12T08:22:14;2.25;;;1.75;;
67363;SDS011;54250;45.572;38.086;2023-09-12T08:24:40;4.28;;;2.00;;
67363;SDS011;54250;45.572;38.086;2023-09-12T08:27:06;7.93;;;2.35;;
67363;SDS011;54250;45.572;38.086;2023-09-12T08:29:32;2.95;;;1.80;;
67363;SDS011;54250;45.572;38.086;2023-09-12T08:31:59;2.70;;;1.60;;
67363;SDS011;54250;45.572;38.086;2023-09-12T08:34:26;1.88;;;1.67;;
67363;SDS011;54250;45.572;38.086;2023-09-12T08:36:52;2.63;;;1.90;;
67363;SDS011;54250;45.572;38.086;2023-09-12T08:39:23;3.42;;;1.73;;
67363;SDS011;54250;45.572;38.086;2023-09-12T08:41:51;2.33;;;1.70;;
67363;SDS011;54250;45.572;38.086;2023-09-12T08:44:18;2.92;;;1.52;;
67363;SDS011;54250;45.572;38.086;2023-09-12T08:46:45;2.28;;;1.83;;
67363;SDS011;54250;45.572;38.086;2023-09-12T08:49:11;2.17;;;1.60;;
67363;SDS011;54250;45.572;38.086;2023-09-12T08:51:38;4.22;;;1.75;;
67363;SDS011;54250;45.572;38.086;2023-09-12T08:54:05;4.50;;;1.95;;
67363;SDS011;54250;45.572;38.086;2023-09-12T08:56:32;2.67;;;1.75;;
67363;SDS011;54250;45.572;38.086;2023-09-12T08:59:00;3.80;;;1.88;;
67363;SDS011;54250;45.572;38.086;2023-09-12T09:01:27;2.88;;;1.70;;
67363;SDS011;54250;45.572;38.086;2023-09-12T09:03:55;2.47;;;1.23;;
67363;SDS011;54250;45.572;38.086;2023-09-12T09:06:22;4.45;;;1.50;;
67363;SDS011;54250;45.572;38.086;2023-09-12T09:08:51;3.13;;;1.90;;
67363;SDS011;54250;45.572;38.086;2023-09-12T09:11:18;2.10;;;1.50;;
67363;SDS011;54250;45.572;38.086;2023-09-12T09:13:44;3.50;;;1.70;;
67363;SDS011;54250;45.572;38.086;2023-09-12T09:16:14;1.65;;;1.25;;
67363;SDS011;54250;45.572;38.086;2023-09-12T09:18:55;3.35;;;1.58;;
67363;SDS011;54250;45.572;38.086;2023-09-12T09:21:24;4.25;;;1.70;;
67363;SDS011;54250;45.572;38.086;2023-09-12T09:23:52;1.85;;;1.48;;
67363;SDS011;54250;45.572;38.086;2023-09-12T09:26:19;2.05;;;1.85;;
67363;SDS011;54250;45.572;38.086;2023-09-12T09:28:46;8.93;;;4.50;;
67363;SDS011;54250;45.572;38.086;2023-09-12T09:31:33;1.60;;;1.35;;
67363;SDS011;54250;45.572;38.086;2023-09-12T09:33:59;1.52;;;1.30;;
67363;SDS011;54250;45.572;38.086;2023-09-12T09:36:27;1.52;;;1.33;;
67363;SDS011;54250;45.572;38.086;2023-09-12T09:38:59;2.03;;;1.30;;
67363;SDS011;54250;45.572;38.086;2023-09-12T09:41:30;1.70;;;1.35;;
67363;SDS011;54250;45.572;38.086;2023-09-12T09:43:58;2.92;;;1.52;;
67363;SDS011;54250;45.572;38.086;2023-09-12T09:46:25;2.10;;;1.35;;
67363;SDS011;54250;45.572;38.086;2023-09-12T09:48:51;2.80;;;1.45;;
67363;SDS011;54250;45.572;38.086;2023-09-12T09:51:17;4.90;;;2.50;;
67363;SDS011;54250;45.572;38.086;2023-09-12T09:53:44;4.18;;;2.00;;
67363;SDS011;54250;45.572;38.086;2023-09-12T09:56:13;1.90;;;1.55;;
67363;SDS011;54250;45.572;38.086;2023-09-12T09:58:53;2.53;;;1.58;;
67363;SDS011;54250;45.572;38.086;2023-09-12T10:01:20;5.93;;;1.67;;
67363;SDS011;54250;45.572;38.086;2023-09-12T10:03:52;7.43;;;3.42;;
67363;SDS011;54250;45.572;38.086;2023-09-12T10:06:22;4.95;;;1.75;;
67363;SDS011;54250;45.572;38.086;2023-09-12T10:08:50;2.05;;;1.60;;
67363;SDS011;54250;45.572;38.086;2023-09-12T10:11:17;23.50;;;8.80;;
67363;SDS011;54250;45.572;38.086;2023-09-12T10:13:46;7.53;;;1.70;;
67363;SDS011;54250;45.572;38.086;2023-09-12T10:16:17;2.42;;;1.60;;
67363;SDS011;54250;45.572;38.086;2023-09-12T10:18:56;2.67;;;1.77;;
67363;SDS011;54250;45.572;38.086;2023-09-12T10:21:25;5.90;;;2.70;;
67363;SDS011;54250;45.572;38.086;2023-09-12T10:23:55;1.48;;;1.15;;
67363;SDS011;54250;45.572;38.086;2023-09-12T10:26:23;5.10;;;1.80;;
67363;SDS011;54250;45.572;38.086;2023-09-12T10:28:49;4.20;;;2.63;;
67363;SDS011;54250;45.572;38.086;2023-09-12T10:31:17;4.50;;;1.95;;
67363;SDS011;54250;45.572;38.086;2023-09-12T10:33:44;6.22;;;3.83;;
67363;SDS011;54250;45.572;38.086;2023-09-12T10:36:12;2.53;;;1.48;;
67363;SDS011;54250;45.572;38.086;2023-09-12T10:38:42;2.17;;;1.67;;
67363;SDS011;54250;45.572;38.086;2023-09-12T10:41:13;2.75;;;1.77;;
67363;SDS011;54250;45.572;38.086;2023-09-12T10:43:40;3.15;;;1.60;;
67363;SDS011;54250;45.572;38.086;2023-09-12T10:46:08;1.52;;;1.40;;
67363;SDS011;54250;45.572;38.086;2023-09-12T10:48:35;4.50;;;2.63;;
67363;SDS011;54250;45.572;38.086;2023-09-12T10:51:01;3.28;;;2.20;;
67363;SDS011;54250;45.572;38.086;2023-09-12T10:53:31;7.78;;;3.13;;
67363;SDS011;54250;45.572;38.086;2023-09-12T10:56:11;5.22;;;2.75;;
67363;SDS011;54250;45.572;38.086;2023-09-12T11:01:29;4.95;;;2.78;;
67363;SDS011;54250;45.572;38.086;2023-09-12T11:03:57;16.77;;;3.67;;
67363;SDS011;54250;45.572;38.086;2023-09-12T11:06:27;3.38;;;2.00;;
67363;SDS011;54250;45.572;38.086;2023-09-12T11:09:28;3.88;;;2.25;;
67363;SDS011;54250;45.572;38.086;2023-09-12T11:11:48;1.92;;;1.23;;
67363;SDS011;54250;45.572;38.086;2023-09-12T11:14:20;2.55;;;1.90;;
67363;SDS011;54250;45.572;38.086;2023-09-12T11:19:45;1.55;;;1.30;;
67363;SDS011;54250;45.572;38.086;2023-09-12T11:25:01;6.70;;;2.10;;
67363;SDS011;54250;45.572;38.086;2023-09-12T11:28:01;3.53;;;2.50;;
67363;SDS011;54250;45.572;38.086;2023-09-12T11:30:29;13.15;;;2.30;;
67363;SDS011;54250;45.572;38.086;2023-09-12T11:33:02;1.85;;;1.50;;
67363;SDS011;54250;45.572;38.086;2023-09-12T11:35:30;3.45;;;2.00;;
67363;SDS011;54250;45.572;38.086;2023-09-12T11:38:02;2.88;;;1.13;;
67363;SDS011;54250;45.572;38.086;2023-09-12T11:43:01;4.45;;;2.15;;
67363;SDS011;54250;45.572;38.086;2023-09-12T11:45:27;11.10;;;1.77;;
67363;SDS011;54250;45.572;38.086;2023-09-12T11:47:55;2.40;;;1.40;;
67363;SDS011;54250;45.572;38.086;2023-09-12T11:50:34;2.92;;;1.92;;
67363;SDS011;54250;45.572;38.086;2023-09-12T11:53:07;4.65;;;2.30;;
67363;SDS011;54250;45.572;38.086;2023-09-12T11:55:53;5.32;;;1.85;;
67363;SDS011;54250;45.572;38.086;2023-09-12T11:58:22;1.38;;;1.27;;
67363;SDS011;54250;45.572;38.086;2023-09-12T12:00:48;3.50;;;1.92;;
67363;SDS011;54250;45.572;38.086;2023-09-12T12:03:17;3.58;;;1.88;;
67363;SDS011;54250;45.572;38.086;2023-09-12T12:05:45;4.00;;;1.75;;
67363;SDS011;54250;45.572;38.086;2023-09-12T12:08:11;14.60;;;4.25;;
67363;SDS011;54250;45.572;38.086;2023-09-12T12:10:37;4.80;;;2.72;;
67363;SDS011;54250;45.572;38.086;2023-09-12T12:13:38;5.28;;;2.20;;
67363;SDS011;54250;45.572;38.086;2023-09-12T12:15:58;2.30;;;1.90;;
67363;SDS011;54250;45.572;38.086;2023-09-12T12:18:24;7.00;;;1.80;;
67363;SDS011;54250;45.572;38.086;2023-09-12T12:20:51;2.28;;;1.45;;
67363;SDS011;54250;45.572;38.086;2023-09-12T12:23:17;1.60;;;1.33;;
67363;SDS011;54250;45.572;38.086;2023-09-12T12:25:42;1.33;;;1.13;;
67363;SDS011;54250;45.572;38.086;2023-09-12T12:28:08;1.90;;;1.27;;
67363;SDS011;54250;45.572;38.086;2023-09-12T12:30:34;2.45;;;1.63;;
67363;SDS011;54250;45.572;38.086;2023-09-12T12:33:02;1.85;;;1.27;;
67363;SDS011;54250;45.572;38.086;2023-09-12T12:35:33;3.03;;;1.88;;
67363;SDS011;54250;45.572;38.086;2023-09-12T12:37:59;2.60;;;1.35;;
67363;SDS011;54250;45.572;38.086;2023-09-12T12:40:27;2.20;;;1.40;;
67363;SDS011;54250;45.572;38.086;2023-09-12T12:42:53;4.93;;;1.60;;
67363;SDS011;54250;45.572;38.086;2023-09-12T12:45:20;2.75;;;1.63;;
67363;SDS011;54250;45.572;38.086;2023-09-12T12:47:50;4.35;;;1.60;;
67363;SDS011;54250;45.572;38.086;2023-09-12T12:50:21;3.25;;;1.67;;
67363;SDS011;54250;45.572;38.086;2023-09-12T12:52:47;1.75;;;1.40;;
67363;SDS011;54250;45.572;38.086;2023-09-12T12:55:14;5.78;;;2.00;;
67363;SDS011;54250;45.572;38.086;2023-09-12T12:57:44;3.42;;;2.05;;
67363;SDS011;54250;45.572;38.086;2023-09-12T13:00:13;2.42;;;1.48;;
67363;SDS011;54250;45.572;38.086;2023-09-12T13:02:41;2.88;;;1.45;;
67363;SDS011;54250;45.572;38.086;2023-09-12T13:05:29;3.65;;;1.55;;
67363;SDS011;54250;45.572;38.086;2023-09-12T13:07:55;2.30;;;1.40;;
67363;SDS011;54250;45.572;38.086;2023-09-12T13:10:22;3.15;;;1.50;;
67363;SDS011;54250;45.572;38.086;2023-09-12T13:12:49;2.00;;;1.67;;
67363;SDS011;54250;45.572;38.086;2023-09-12T13:15:15;2.78;;;1.83;;
67363;SDS011;54250;45.572;38.086;2023-09-12T13:17:42;1.52;;;1.25;;
67363;SDS011;54250;45.572;38.086;2023-09-12T13:20:09;1.10;;;1.00;;
67363;SDS011;54250;45.572;38.086;2023-09-12T13:22:35;1.42;;;0.75;;
67363;SDS011;54250;45.572;38.086;2023-09-12T13:25:02;1.83;;;1.05;;
67363;SDS011;54250;45.572;38.086;2023-09-12T13:27:28;1.80;;;1.10;;
67363;SDS011;54250;45.572;38.086;2023-09-12T13:29:54;1.98;;;1.30;;
67363;SDS011;54250;45.572;38.086;2023-09-12T13:32:20;2.05;;;1.38;;
67363;SDS011;54250;45.572;38.086;2023-09-12T13:34:47;5.45;;;1.27;;
67363;SDS011;54250;45.572;38.086;2023-09-12T13:37:15;2.10;;;1.15;;
67363;SDS011;54250;45.572;38.086;2023-09-12T13:39:42;3.08;;;1.38;;
67363;SDS011;54250;45.572;38.086;2023-09-12T13:42:17;1.73;;;1.48;;
67363;SDS011;54250;45.572;38.086;2023-09-12T13:44:49;2.05;;;1.40;;
67363;SDS011;54250;45.572;38.086;2023-09-12T13:47:16;1.17;;;0.93;;
67363;SDS011;54250;45.572;38.086;2023-09-12T13:49:47;3.30;;;1.25;;
67363;SDS011;54250;45.572;38.086;2023-09-12T13:52:13;2.13;;;1.20;;
67363;SDS011;54250;45.572;38.086;2023-09-12T13:54:42;1.40;;;1.02;;
67363;SDS011;54250;45.572;38.086;2023-09-12T13:57:08;2.67;;;1.38;;
67363;SDS011;54250;45.572;38.086;2023-09-12T13:59:34;1.80;;;1.50;;
67363;SDS011;54250;45.572;38.086;2023-09-12T14:02:00;7.13;;;1.30;;
67363;SDS011;54250;45.572;38.086;2023-09-12T14:04:25;4.45;;;1.63;;
67363;SDS011;54250;45.572;38.086;2023-09-12T14:06:51;2.03;;;1.40;;
67363;SDS011;54250;45.572;38.086;2023-09-12T14:09:18;1.35;;;1.10;;
67363;SDS011;54250;45.572;38.086;2023-09-12T14:11:44;2.25;;;1.27;;
67363;SDS011;54250;45.572;38.086;2023-09-12T14:14:12;6.07;;;2.60;;
67363;SDS011;54250;45.572;38.086;2023-09-12T14:16:37;4.22;;;1.85;;
67363;SDS011;54250;45.572;38.086;2023-09-12T14:19:03;3.35;;;1.70;;
67363;SDS011;54250;45.572;38.086;2023-09-12T14:21:29;4.93;;;1.75;;
67363;SDS011;54250;45.572;38.086;2023-09-12T14:23:56;3.88;;;1.63;;
67363;SDS011;54250;45.572;38.086;2023-09-12T14:26:22;4.55;;;1.80;;
67363;SDS011;54250;45.572;38.086;2023-09-12T14:28:49;3.10;;;1.48;;
67363;SDS011;54250;45.572;38.086;2023-09-12T14:31:15;5.03;;;1.52;;
67363;SDS011;54250;45.572;38.086;2023-09-12T14:33:41;2.70;;;1.83;;
67363;SDS011;54250;45.572;38.086;2023-09-12T14:36:07;2.80;;;1.65;;
67363;SDS011;54250;45.572;38.086;2023-09-12T14:38:34;3.20;;;1.85;;
67363;SDS011;54250;45.572;38.086;2023-09-12T14:41:01;6.75;;;1.55;;
67363;SDS011;54250;45.572;38.086;2023-09-12T14:43:28;5.03;;;2.63;;
67363;SDS011;54250;45.572;38.086;2023-09-12T14:45:54;4.22;;;2.17;;